Time;durP1;ratioP1;P1;durP2;ratioP2;P2;SDS_P1;SDS_P2;PMS_P1;PMS_P2;Temp;Humidity;BMP_temperature;BMP_pressure;BME280_temperature;BME280_humidity;BME280_pressure;Samples;Min_cycle;Max_cycle;Signal;HPM_P1;HPM_P2
2021/03/05 00:01:19;;;;;;;28.27;14.07;;;;;;;;;;5016533;28;20491;-35
2021/03/05 00:04:06;;;;;;;26.67;14.67;;;;;;;;;;5019453;28;20201;-32
2021/03/05 00:06:55;;;;;;;34.90;18.80;;;;;;;;;;5019307;28;20611;-33
2021/03/05 00:09:41;;;;;;;29.07;18.10;;;;;;;;;;5019203;28;20202;-34
2021/03/05 00:12:27;;;;;;;31.57;19.10;;;;;;;;;;5018573;28;20241;-33
2021/03/05 00:15:13;;;;;;;36.20;19.33;;;;;;;;;;5019430;28;20202;-34
2021/03/05 00:18:00;;;;;;;27.27;18.00;;;;;;;;;;5019220;28;20484;-33
2021/03/05 00:20:49;;;;;;;30.33;17.97;;;;;;;;;;5019436;28;20213;-33
2021/03/05 00:23:35;;;;;;;32.83;19.03;;;;;;;;;;5019945;28;20202;-35
2021/03/05 00:26:20;;;;;;;28.03;18.17;;;;;;;;;;5018760;28;20225;-32
2021/03/05 00:29:06;;;;;;;34.17;18.07;;;;;;;;;;5018567;28;20196;-36
2021/03/05 00:31:52;;;;;;;32.03;19.03;;;;;;;;;;5018805;28;20264;-34
2021/03/05 00:34:38;;;;;;;31.33;19.43;;;;;;;;;;5018836;28;20280;-34
2021/03/05 00:37:25;;;;;;;32.40;18.73;;;;;;;;;;5018750;28;20230;-36
2021/03/05 00:40:12;;;;;;;33.23;18.67;;;;;;;;;;5019093;28;20311;-32
2021/03/05 00:42:58;;;;;;;32.27;20.40;;;;;;;;;;5018941;28;20205;-33
2021/03/05 00:45:44;;;;;;;30.90;19.43;;;;;;;;;;5019227;28;20201;-34
2021/03/05 00:48:30;;;;;;;32.77;20.17;;;;;;;;;;5018812;28;20194;-32
2021/03/05 00:51:16;;;;;;;31.23;20.63;;;;;;;;;;5019279;28;20493;-33
2021/03/05 00:54:04;;;;;;;32.73;19.67;;;;;;;;;;5018442;28;20201;-36
2021/03/05 00:56:50;;;;;;;37.13;19.50;;;;;;;;;;5019009;28;20750;-32
2021/03/05 00:59:35;;;;;;;33.83;20.60;;;;;;;;;;5018760;28;20631;-36
2021/03/05 01:02:22;;;;;;;33.93;19.87;;;;;;;;;;5018514;28;20218;-32
2021/03/05 01:05:10;;;;;;;30.40;19.53;;;;;;;;;;5018736;28;20601;-35
2021/03/05 01:07:55;;;;;;;32.73;18.87;;;;;;;;;;5018482;28;20197;-34
2021/03/05 01:10:46;;;;;;;33.57;18.90;;;;;;;;;;5018543;28;20197;-36
2021/03/05 01:13:32;;;;;;;35.87;20.00;;;;;;;;;;5018186;28;20253;-32
2021/03/05 01:16:18;;;;;;;33.23;20.10;;;;;;;;;;5018318;28;20206;-36
2021/03/05 01:19:07;;;;;;;32.00;19.73;;;;;;;;;;5018193;28;20230;-36
2021/03/05 01:21:53;;;;;;;29.97;19.83;;;;;;;;;;5018683;28;20332;-36
2021/03/05 01:24:39;;;;;;;33.43;19.93;;;;;;;;;;5018449;28;20231;-36
2021/03/05 01:27:25;;;;;;;30.73;19.43;;;;;;;;;;5018151;28;20193;-35
2021/03/05 01:30:14;;;;;;;29.37;18.30;;;;;;;;;;5018366;28;20345;-32
2021/03/05 01:33:04;;;;;;;28.77;18.93;;;;;;;;;;5018128;28;20197;-34
2021/03/05 01:35:50;;;;;;;26.67;18.10;;;;;;;;;;5018214;28;20292;-34
2021/03/05 01:38:36;;;;;;;30.73;17.60;;;;;;;;;;5018288;28;20229;-34
2021/03/05 01:41:23;;;;;;;28.67;17.77;;;;;;;;;;5017956;28;20218;-33
2021/03/05 01:44:12;;;;;;;28.90;16.73;;;;;;;;;;5017771;28;20209;-35
2021/03/05 01:46:57;;;;;;;22.23;15.53;;;;;;;;;;5017539;28;20600;-35
2021/03/05 01:49:44;;;;;;;22.90;15.83;;;;;;;;;;5017681;28;20197;-33
2021/03/05 01:52:30;;;;;;;26.33;15.60;;;;;;;;;;5017943;28;20197;-35
2021/03/05 01:55:15;;;;;;;20.00;14.60;;;;;;;;;;5017773;28;20496;-32
2021/03/05 01:58:02;;;;;;;23.60;15.00;;;;;;;;;;5017347;28;20288;-35
2021/03/05 02:00:51;;;;;;;37.80;19.53;;;;;;;;;;5017545;28;20596;-34
2021/03/05 02:03:38;;;;;;;23.23;14.77;;;;;;;;;;5017605;28;20201;-35
2021/03/05 02:06:24;;;;;;;23.40;14.53;;;;;;;;;;5016693;28;20202;-34
2021/03/05 02:09:10;;;;;;;19.90;14.20;;;;;;;;;;5017389;28;20296;-36
2021/03/05 02:11:56;;;;;;;21.03;13.40;;;;;;;;;;5016967;28;20237;-34
2021/03/05 02:14:42;;;;;;;20.97;13.97;;;;;;;;;;5017601;28;20482;-34
2021/03/05 02:17:32;;;;;;;22.10;14.10;;;;;;;;;;5017328;28;20728;-35
2021/03/05 02:20:22;;;;;;;19.77;13.93;;;;;;;;;;5017335;28;20198;-37
2021/03/05 02:23:32;;;;;;;18.93;13.40;;;;;;;;;;5016695;28;20214;-35
2021/03/05 02:26:53;;;;;;;17.70;12.73;;;;;;;;;;5017315;28;20205;-35
2021/03/05 02:29:57;;;;;;;16.00;12.10;;;;;;;;;;5017269;28;20202;-34
2021/03/05 02:32:50;;;;;;;15.73;11.57;;;;;;;;;;5017173;28;20208;-34
2021/03/05 02:35:37;;;;;;;18.67;12.67;;;;;;;;;;5017171;28;20209;-34
2021/03/05 02:38:28;;;;;;;16.63;12.53;;;;;;;;;;5017178;28;20441;-34
2021/03/05 02:41:15;;;;;;;15.87;11.53;;;;;;;;;;5017526;28;20292;-33
2021/03/05 02:44:01;;;;;;;15.20;11.40;;;;;;;;;;5016993;28;20205;-37
2021/03/05 02:46:46;;;;;;;19.07;11.47;;;;;;;;;;5016671;28;20197;-34
2021/03/05 02:49:37;;;;;;;16.47;11.07;;;;;;;;;;5016905;28;20213;-35
2021/03/05 02:52:24;;;;;;;18.50;9.80;;;;;;;;;;5016821;28;20209;-33
2021/03/05 02:55:11;;;;;;;9.80;7.80;;;;;;;;;;5017335;28;20202;-33
2021/03/05 02:57:58;;;;;;;11.73;8.70;;;;;;;;;;5016949;28;20554;-34
2021/03/05 03:00:45;;;;;;;10.97;7.90;;;;;;;;;;5017036;28;20456;-34
2021/03/05 03:03:32;;;;;;;10.73;7.17;;;;;;;;;;5017079;28;20541;-36
2021/03/05 03:06:22;;;;;;;11.97;7.50;;;;;;;;;;5016870;28;20720;-37
2021/03/05 03:09:08;;;;;;;8.83;6.27;;;;;;;;;;5016648;28;20198;-33
2021/03/05 03:11:54;;;;;;;9.27;5.97;;;;;;;;;;5016892;28;20319;-34
2021/03/05 03:14:39;;;;;;;7.97;5.40;;;;;;;;;;5016926;28;20452;-34
2021/03/05 03:17:27;;;;;;;7.20;5.20;;;;;;;;;;5016886;28;20859;-34
2021/03/05 03:20:16;;;;;;;5.53;3.70;;;;;;;;;;5017060;28;20536;-35
2021/03/05 03:23:03;;;;;;;4.47;3.80;;;;;;;;;;5016761;28;20863;-38
2021/03/05 03:25:49;;;;;;;6.67;3.40;;;;;;;;;;5016891;28;20449;-35
2021/03/05 03:28:36;;;;;;;8.90;4.00;;;;;;;;;;5017101;28;20467;-36
2021/03/05 03:31:21;;;;;;;4.67;3.47;;;;;;;;;;5016718;28;20440;-34
2021/03/05 03:34:08;;;;;;;3.57;3.13;;;;;;;;;;5017031;28;20541;-34
2021/03/05 03:36:55;;;;;;;7.60;3.20;;;;;;;;;;5019997;28;20440;-34
2021/03/05 03:39:45;;;;;;;8.30;3.57;;;;;;;;;;5020109;28;20461;-33
2021/03/05 03:42:31;;;;;;;7.67;3.90;;;;;;;;;;5019994;28;20496;-32
2021/03/05 03:45:20;;;;;;;5.67;3.33;;;;;;;;;;5020064;28;20538;-35
2021/03/05 03:48:07;;;;;;;8.73;3.47;;;;;;;;;;5020112;28;20535;-33
2021/03/05 03:50:55;;;;;;;4.00;2.83;;;;;;;;;;5019929;28;20527;-35
2021/03/05 03:53:41;;;;;;;8.57;2.70;;;;;;;;;;5020190;28;20440;-35
2021/03/05 03:56:30;;;;;;;5.20;2.53;;;;;;;;;;5020212;28;20447;-34
2021/03/05 03:59:16;;;;;;;7.90;2.60;;;;;;;;;;5020156;28;20877;-34
2021/03/05 04:02:02;;;;;;;2.93;2.60;;;;;;;;;;5019780;28;20871;-33
2021/03/05 04:04:51;;;;;;;5.90;2.70;;;;;;;;;;5019977;28;20448;-35
2021/03/05 04:07:38;;;;;;;8.10;2.60;;;;;;;;;;5019869;28;20668;-35
2021/03/05 04:10:24;;;;;;;4.57;1.97;;;;;;;;;;5019913;28;20994;-35
2021/03/05 04:13:13;;;;;;;4.10;2.03;;;;;;;;;;5019741;28;20501;-36
2021/03/05 04:15:59;;;;;;;3.27;2.30;;;;;;;;;;5020096;28;20456;-36
2021/03/05 04:18:45;;;;;;;4.27;2.10;;;;;;;;;;5019446;28;21069;-32
2021/03/05 04:21:33;;;;;;;2.03;1.83;;;;;;;;;;5019030;28;20748;-37
2021/03/05 04:24:21;;;;;;;3.37;1.93;;;;;;;;;;5019428;28;20850;-36
2021/03/05 04:27:08;;;;;;;4.57;2.00;;;;;;;;;;5019552;28;20452;-37
2021/03/05 04:29:55;;;;;;;2.20;2.00;;;;;;;;;;5019660;28;20445;-32
2021/03/05 04:32:42;;;;;;;3.20;2.20;;;;;;;;;;5019687;28;20547;-34
2021/03/05 04:35:28;;;;;;;3.60;2.00;;;;;;;;;;5019360;28;20449;-37
2021/03/05 04:38:14;;;;;;;3.70;2.43;;;;;;;;;;5019042;28;20487;-33
2021/03/05 04:40:59;;;;;;;2.10;1.90;;;;;;;;;;5019235;28;20456;-34
2021/03/05 04:43:45;;;;;;;5.60;2.30;;;;;;;;;;5019303;28;20867;-33
2021/03/05 04:46:32;;;;;;;4.10;2.20;;;;;;;;;;5018329;28;20728;-34
2021/03/05 04:49:19;;;;;;;3.40;2.03;;;;;;;;;;5019131;28;20776;-33
2021/03/05 04:52:05;;;;;;;4.97;2.23;;;;;;;;;;5019155;28;20547;-32
2021/03/05 04:54:51;;;;;;;3.73;1.93;;;;;;;;;;5018569;28;20452;-32
2021/03/05 04:57:39;;;;;;;2.37;2.10;;;;;;;;;;4999263;28;20449;-33
2021/03/05 05:00:25;;;;;;;5.17;2.20;;;;;;;;;;4999043;28;20445;-37
2021/03/05 05:03:12;;;;;;;3.83;2.20;;;;;;;;;;4999227;28;20597;-35
2021/03/05 05:05:58;;;;;;;4.67;2.70;;;;;;;;;;4998925;28;20449;-33
2021/03/05 05:08:45;;;;;;;11.10;2.40;;;;;;;;;;4999259;28;20461;-36
2021/03/05 05:11:31;;;;;;;5.80;2.43;;;;;;;;;;4998888;28;20868;-32
2021/03/05 05:14:16;;;;;;;7.40;2.37;;;;;;;;;;4998984;28;20586;-35
2021/03/05 05:17:02;;;;;;;3.63;2.33;;;;;;;;;;4998714;28;20724;-31
2021/03/05 05:19:50;;;;;;;5.70;2.63;;;;;;;;;;4998796;28;20485;-33
2021/03/05 05:22:36;;;;;;;4.17;2.10;;;;;;;;;;4998866;28;20868;-34
2021/03/05 05:25:22;;;;;;;5.83;2.40;;;;;;;;;;4999140;28;20496;-36
2021/03/05 05:28:09;;;;;;;7.37;3.27;;;;;;;;;;4998653;28;20783;-32
2021/03/05 05:30:56;;;;;;;5.90;2.40;;;;;;;;;;4998310;28;20920;-32
2021/03/05 05:33:41;;;;;;;7.27;2.70;;;;;;;;;;4998158;28;20513;-35
2021/03/05 05:36:28;;;;;;;3.57;2.50;;;;;;;;;;4998784;28;20988;-35
2021/03/05 05:39:14;;;;;;;7.83;3.80;;;;;;;;;;4998154;28;20496;-32
2021/03/05 05:42:01;;;;;;;6.43;4.10;;;;;;;;;;4999104;28;20540;-36
2021/03/05 05:44:48;;;;;;;7.23;3.47;;;;;;;;;;4997951;28;20924;-41
2021/03/05 05:47:39;;;;;;;5.63;2.80;;;;;;;;;;4998116;28;20492;-35
2021/03/05 05:50:26;;;;;;;4.57;2.30;;;;;;;;;;4997687;28;20442;-34
2021/03/05 05:53:14;;;;;;;3.93;2.87;;;;;;;;;;4998274;28;20845;-39
2021/03/05 05:56:03;;;;;;;5.50;2.60;;;;;;;;;;4998341;28;20455;-35
2021/03/05 05:58:53;;;;;;;3.47;2.80;;;;;;;;;;4997119;28;20438;-40
2021/03/05 06:01:40;;;;;;;4.43;2.63;;;;;;;;;;4997562;28;20866;-34
2021/03/05 06:04:27;;;;;;;6.87;3.13;;;;;;;;;;4997733;28;20536;-33
2021/03/05 06:07:14;;;;;;;5.50;3.20;;;;;;;;;;4998074;28;20453;-35
2021/03/05 06:10:21;;;;;;;5.43;3.10;;;;;;;;;;4997618;28;20453;-38
2021/03/05 06:13:07;;;;;;;8.73;3.40;;;;;;;;;;4997148;28;20473;-36
2021/03/05 06:16:12;;;;;;;11.77;4.23;;;;;;;;;;5011641;28;20453;-38
2021/03/05 06:18:59;;;;;;;7.87;3.30;;;;;;;;;;5017503;28;20946;-41
2021/03/05 06:21:46;;;;;;;7.63;2.90;;;;;;;;;;5016694;28;20448;-38
2021/03/05 06:24:42;;;;;;;9.53;3.40;;;;;;;;;;5016838;28;21241;-38
2021/03/05 06:27:30;;;;;;;13.20;3.77;;;;;;;;;;5017406;28;20445;-38
2021/03/05 06:30:28;;;;;;;7.17;3.03;;;;;;;;;;5016958;28;20844;-39
2021/03/05 06:33:24;;;;;;;7.60;3.93;;;;;;;;;;5015638;28;20735;-40
2021/03/05 06:36:17;;;;;;;11.53;3.97;;;;;;;;;;5016340;28;20535;-36
2021/03/05 06:39:03;;;;;;;7.63;3.40;;;;;;;;;;5016709;28;20449;-39
2021/03/05 06:41:59;;;;;;;12.70;4.00;;;;;;;;;;5016799;28;20456;-38
2021/03/05 06:44:47;;;;;;;8.47;3.93;;;;;;;;;;5016142;28;20441;-40
2021/03/05 06:47:35;;;;;;;8.97;4.60;;;;;;;;;;5016414;28;20588;-42
2021/03/05 06:50:23;;;;;;;8.97;5.10;;;;;;;;;;5016742;28;20764;-40
2021/03/05 06:53:22;;;;;;;8.10;4.43;;;;;;;;;;5016828;28;20449;-38
2021/03/05 06:56:08;;;;;;;11.20;3.47;;;;;;;;;;5016952;28;20460;-39
2021/03/05 06:58:58;;;;;;;7.67;3.37;;;;;;;;;;5016226;28;20440;-39
2021/03/05 07:01:48;;;;;;;10.80;3.87;;;;;;;;;;5016204;28;20539;-39
2021/03/05 07:04:35;;;;;;;8.47;3.50;;;;;;;;;;5016593;28;20440;-41
2021/03/05 07:07:22;;;;;;;4.00;3.20;;;;;;;;;;5015893;28;20441;-36
2021/03/05 07:10:08;;;;;;;11.23;3.20;;;;;;;;;;5017543;28;20228;-38
2021/03/05 07:13:01;;;;;;;12.30;3.40;;;;;;;;;;5020418;28;20571;-36
2021/03/05 07:15:53;;;;;;;5.00;2.80;;;;;;;;;;5020387;28;20206;-38
2021/03/05 07:18:41;;;;;;;10.83;2.97;;;;;;;;;;5020395;28;20201;-38
2021/03/05 07:21:27;;;;;;;6.37;2.97;;;;;;;;;;5020307;28;20492;-38
2021/03/05 07:24:15;;;;;;;5.53;2.93;;;;;;;;;;5020485;28;20206;-37
2021/03/05 07:27:06;;;;;;;6.93;3.30;;;;;;;;;;5020338;28;20196;-38
2021/03/05 07:29:55;;;;;;;5.83;2.60;;;;;;;;;;5019979;28;20237;-36
2021/03/05 07:32:46;;;;;;;6.37;2.80;;;;;;;;;;5020284;28;20205;-37
2021/03/05 07:35:35;;;;;;;9.20;2.50;;;;;;;;;;5019328;28;20620;-34
2021/03/05 07:38:28;;;;;;;8.50;3.47;;;;;;;;;;5019828;28;20190;-37
2021/03/05 07:41:32;;;;;;;9.93;2.60;;;;;;;;;;5020110;28;20796;-39
2021/03/05 07:44:21;;;;;;;10.37;2.57;;;;;;;;;;5019923;28;20300;-35
2021/03/05 07:47:08;;;;;;;5.93;2.50;;;;;;;;;;5019449;28;20197;-38
2021/03/05 07:49:58;;;;;;;4.97;2.63;;;;;;;;;;5019315;28;20233;-34
2021/03/05 07:52:45;;;;;;;3.23;2.13;;;;;;;;;;5019122;28;20206;-34
2021/03/05 07:55:35;;;;;;;3.63;2.10;;;;;;;;;;5018852;28;20206;-37
2021/03/05 07:58:40;;;;;;;11.03;3.97;;;;;;;;;;5018531;28;20300;-37
2021/03/05 08:01:41;;;;;;;11.57;3.40;;;;;;;;;;5019163;28;20608;-40
2021/03/05 08:04:45;;;;;;;7.87;2.23;;;;;;;;;;5018907;28;20209;-35
2021/03/05 08:07:32;;;;;;;5.33;2.47;;;;;;;;;;5019405;28;20201;-36
2021/03/05 08:10:33;;;;;;;6.77;2.67;;;;;;;;;;5019257;28;20233;-37
2021/03/05 08:13:43;;;;;;;7.37;2.67;;;;;;;;;;5018382;28;20653;-40
2021/03/05 08:16:33;;;;;;;8.23;2.50;;;;;;;;;;5018451;28;20300;-39
2021/03/05 08:19:44;;;;;;;8.17;2.73;;;;;;;;;;5019223;28;20314;-40
2021/03/05 08:22:33;;;;;;;5.60;2.60;;;;;;;;;;5018170;28;20596;-36
2021/03/05 08:25:23;;;;;;;6.90;2.50;;;;;;;;;;5019452;28;20206;-38
2021/03/05 08:28:24;;;;;;;7.30;2.70;;;;;;;;;;5018714;28;20599;-34
2021/03/05 08:31:30;;;;;;;7.93;2.83;;;;;;;;;;5018652;28;20221;-40
2021/03/05 08:34:29;;;;;;;4.77;2.30;;;;;;;;;;5018548;28;20204;-39
2021/03/05 08:37:26;;;;;;;4.13;2.10;;;;;;;;;;5018402;28;20198;-37
2021/03/05 08:40:28;;;;;;;4.17;2.40;;;;;;;;;;5018547;28;20197;-36
2021/03/05 08:43:21;;;;;;;5.73;2.43;;;;;;;;;;5018554;28;20205;-40
2021/03/05 08:46:08;;;;;;;5.47;2.60;;;;;;;;;;5018556;28;20198;-38
2021/03/05 08:48:54;;;;;;;5.63;2.43;;;;;;;;;;5014067;28;20365;-38
2021/03/05 08:51:44;;;;;;;6.07;2.70;;;;;;;;;;5016960;28;20218;-37
2021/03/05 08:54:33;;;;;;;4.83;2.43;;;;;;;;;;5018521;28;20202;-37
2021/03/05 08:57:21;;;;;;;9.00;2.80;;;;;;;;;;5018624;28;20612;-37
2021/03/05 09:00:11;;;;;;;5.60;3.13;;;;;;;;;;5018248;28;20296;-36
2021/03/05 09:03:05;;;;;;;7.07;3.03;;;;;;;;;;5018401;28;20333;-36
2021/03/05 09:05:58;;;;;;;6.57;2.90;;;;;;;;;;5018486;28;20342;-38
2021/03/05 09:08:52;;;;;;;5.40;2.50;;;;;;;;;;5018330;28;20632;-39
2021/03/05 09:11:41;;;;;;;7.33;2.93;;;;;;;;;;5025905;28;20687;-37
2021/03/05 09:14:29;;;;;;;7.63;3.40;;;;;;;;;;5038366;28;20498;-40
2021/03/05 09:17:19;;;;;;;7.87;2.50;;;;;;;;;;5039049;28;20283;-33
2021/03/05 09:20:06;;;;;;;3.50;2.37;;;;;;;;;;5036979;28;20268;-36
2021/03/05 09:22:52;;;;;;;5.40;1.73;;;;;;;;;;5037811;28;20343;-37
2021/03/05 09:25:46;;;;;;;4.87;1.90;;;;;;;;;;5037524;28;20289;-37
2021/03/05 09:28:41;;;;;;;4.57;1.83;;;;;;;;;;5037545;28;20637;-38
2021/03/05 09:31:27;;;;;;;5.90;2.10;;;;;;;;;;5037637;28;20723;-36
2021/03/05 09:34:15;;;;;;;2.53;1.70;;;;;;;;;;5037552;28;20202;-36
2021/03/05 09:37:01;;;;;;;3.57;1.80;;;;;;;;;;5036707;28;20492;-39
2021/03/05 09:39:48;;;;;;;3.60;1.80;;;;;;;;;;5016743;28;20321;-39
2021/03/05 09:42:51;;;;;;;3.97;1.87;;;;;;;;;;5019156;28;20227;-38
2021/03/05 09:45:41;;;;;;;4.67;2.07;;;;;;;;;;5016731;28;20207;-37
2021/03/05 09:48:29;;;;;;;1.57;1.47;;;;;;;;;;5016667;28;20202;-36
2021/03/05 09:51:15;;;;;;;3.93;1.40;;;;;;;;;;5002376;28;20635;-39
2021/03/05 09:54:01;;;;;;;5.00;1.67;;;;;;;;;;5008521;28;20216;-37
2021/03/05 09:56:49;;;;;;;3.50;1.60;;;;;;;;;;5016912;28;20220;-38
2021/03/05 09:59:47;;;;;;;4.27;1.63;;;;;;;;;;5018286;28;20235;-35
2021/03/05 10:02:36;;;;;;;2.57;1.47;;;;;;;;;;5017192;28;20208;-40
2021/03/05 10:05:25;;;;;;;2.90;1.70;;;;;;;;;;5016887;28;20211;-39
2021/03/05 10:08:12;;;;;;;3.47;1.53;;;;;;;;;;5017352;28;20549;-38
2021/03/05 10:11:08;;;;;;;2.07;1.60;;;;;;;;;;5016337;28;20200;-33
2021/03/05 10:13:55;;;;;;;3.77;2.30;;;;;;;;;;5016679;28;20200;-39
2021/03/05 10:16:46;;;;;;;10.73;7.00;;;;;;;;;;5017618;28;20208;-36
2021/03/05 10:19:32;;;;;;;9.50;5.50;;;;;;;;;;5027596;28;20253;-38
2021/03/05 10:22:24;;;;;;;4.37;3.10;;;;;;;;;;5017040;28;20549;-37
2021/03/05 10:25:17;;;;;;;1.90;1.60;;;;;;;;;;5017596;28;20292;-38
2021/03/05 10:28:04;;;;;;;8.73;4.53;;;;;;;;;;5016983;28;20584;-37
2021/03/05 10:30:50;;;;;;;6.13;2.33;;;;;;;;;;5016412;28;20213;-37
2021/03/05 10:33:40;;;;;;;3.77;1.93;;;;;;;;;;5016886;28;20265;-37
2021/03/05 10:36:28;;;;;;;3.70;2.10;;;;;;;;;;5016677;28;20209;-38
2021/03/05 10:39:15;;;;;;;6.43;4.43;;;;;;;;;;5016751;28;20198;-39
2021/03/05 10:42:04;;;;;;;3.47;2.20;;;;;;;;;;5016262;28;20201;-39
2021/03/05 10:44:50;;;;;;;5.27;2.87;;;;;;;;;;5016159;28;20720;-38
2021/03/05 10:47:36;;;;;;;5.00;1.83;;;;;;;;;;5015797;28;20454;-37
2021/03/05 10:50:23;;;;;;;1.50;1.30;;;;;;;;;;5016622;28;20272;-38
2021/03/05 10:53:13;;;;;;;2.57;1.40;;;;;;;;;;5016293;28;20262;-37
2021/03/05 10:55:59;;;;;;;3.03;1.40;;;;;;;;;;5016567;28;20197;-37
2021/03/05 10:58:44;;;;;;;3.13;1.87;;;;;;;;;;5016762;28;20192;-35
2021/03/05 11:01:31;;;;;;;2.07;1.30;;;;;;;;;;5015655;28;20647;-37
2021/03/05 11:04:17;;;;;;;2.63;1.53;;;;;;;;;;5015811;28;20489;-37
2021/03/05 11:07:04;;;;;;;3.40;1.20;;;;;;;;;;5016001;28;20202;-36
2021/03/05 11:09:52;;;;;;;2.67;1.43;;;;;;;;;;5016481;28;20230;-35
2021/03/05 11:12:38;;;;;;;4.77;1.50;;;;;;;;;;5016129;28;20333;-40
2021/03/05 11:15:30;;;;;;;3.70;1.83;;;;;;;;;;5016095;28;20488;-40
2021/03/05 11:18:16;;;;;;;5.67;1.80;;;;;;;;;;5016474;28;20217;-38
2021/03/05 11:21:05;;;;;;;2.40;1.30;;;;;;;;;;5016558;28;20280;-39
2021/03/05 11:23:54;;;;;;;3.80;2.60;;;;;;;;;;5015589;28;20803;-38
2021/03/05 11:26:40;;;;;;;4.40;1.40;;;;;;;;;;5016483;28;20206;-36
2021/03/05 11:29:26;;;;;;;2.20;1.43;;;;;;;;;;5015729;28;20470;-36
2021/03/05 11:32:12;;;;;;;1.10;1.10;;;;;;;;;;5016049;28;20217;-36
2021/03/05 11:34:58;;;;;;;5.20;1.50;;;;;;;;;;5016401;28;20203;-40
2021/03/05 11:37:47;;;;;;;2.43;1.37;;;;;;;;;;5015961;28;20350;-37
2021/03/05 11:40:34;;;;;;;1.50;1.07;;;;;;;;;;5016516;28;20202;-40
2021/03/05 11:43:20;;;;;;;1.73;1.47;;;;;;;;;;5015653;28;20197;-38
2021/03/05 11:46:07;;;;;;;1.30;1.20;;;;;;;;;;4999271;28;20219;-37
2021/03/05 11:48:53;;;;;;;3.60;1.40;;;;;;;;;;4996443;28;20277;-40
2021/03/05 11:51:39;;;;;;;4.17;1.30;;;;;;;;;;4996579;28;20226;-38
2021/03/05 11:54:31;;;;;;;3.63;1.40;;;;;;;;;;4996062;28;20261;-35
2021/03/05 11:57:18;;;;;;;5.77;1.20;;;;;;;;;;4999498;28;20205;-37
2021/03/05 12:00:06;;;;;;;1.40;1.30;;;;;;;;;;5000142;28;20197;-39
2021/03/05 12:02:52;;;;;;;1.83;1.20;;;;;;;;;;5002022;28;20595;-39
2021/03/05 12:05:42;;;;;;;2.00;1.00;;;;;;;;;;5019871;28;20301;-35
2021/03/05 12:08:32;;;;;;;3.87;1.70;;;;;;;;;;5019532;28;20209;-36
2021/03/05 12:11:18;;;;;;;3.50;1.33;;;;;;;;;;5019581;28;20713;-37
2021/03/05 12:14:10;;;;;;;2.23;1.47;;;;;;;;;;5019083;28;20205;-38
2021/03/05 12:16:58;;;;;;;3.27;1.20;;;;;;;;;;5019154;28;20342;-41
2021/03/05 12:19:52;;;;;;;3.90;1.50;;;;;;;;;;5019661;28;20198;-41
2021/03/05 12:22:39;;;;;;;2.90;1.60;;;;;;;;;;5004227;28;20215;-35
2021/03/05 12:25:28;;;;;;;2.37;1.57;;;;;;;;;;5018902;28;20298;-35
2021/03/05 12:28:14;;;;;;;3.77;1.23;;;;;;;;;;5017920;28;20298;-39
2021/03/05 12:31:02;;;;;;;3.80;1.30;;;;;;;;;;5018450;28;20211;-38
2021/03/05 12:33:49;;;;;;;2.57;1.77;;;;;;;;;;5018513;28;20348;-38
2021/03/05 12:36:37;;;;;;;2.13;1.57;;;;;;;;;;5019183;28;20348;-37
2021/03/05 12:39:31;;;;;;;1.87;1.30;;;;;;;;;;5017598;28;20198;-41
2021/03/05 12:42:22;;;;;;;4.97;1.67;;;;;;;;;;5018785;28;20198;-41
2021/03/05 12:45:20;;;;;;;4.37;1.47;;;;;;;;;;5018402;28;20277;-35
2021/03/05 12:48:08;;;;;;;2.30;1.33;;;;;;;;;;5018359;28;20198;-40
2021/03/05 12:50:55;;;;;;;1.33;1.23;;;;;;;;;;5018292;28;20606;-40
2021/03/05 12:53:43;;;;;;;4.60;1.40;;;;;;;;;;5018955;28;20201;-38
2021/03/05 12:56:39;;;;;;;1.13;1.10;;;;;;;;;;5019050;28;20214;-36
2021/03/05 12:59:25;;;;;;;3.20;1.20;;;;;;;;;;5018220;28;20541;-37
2021/03/05 13:02:11;;;;;;;1.27;1.00;;;;;;;;;;5018054;28;20208;-38
2021/03/05 13:04:58;;;;;;;1.23;0.80;;;;;;;;;;5017262;28;20204;-39
2021/03/05 13:07:47;;;;;;;1.17;0.97;;;;;;;;;;5011207;28;20270;-39
2021/03/05 13:10:37;;;;;;;2.97;1.10;;;;;;;;;;4998756;28;20418;-38
2021/03/05 13:13:28;;;;;;;2.17;1.43;;;;;;;;;;4998280;28;20501;-37
2021/03/05 13:16:33;;;;;;;1.13;1.00;;;;;;;;;;4997710;28;20210;-35
2021/03/05 13:19:19;;;;;;;1.97;1.10;;;;;;;;;;4997906;28;20489;-36
2021/03/05 13:22:10;;;;;;;1.17;1.07;;;;;;;;;;4998102;28;20207;-36
2021/03/05 13:25:00;;;;;;;1.30;1.10;;;;;;;;;;4998365;28;20199;-41
2021/03/05 13:27:46;;;;;;;2.93;0.93;;;;;;;;;;4998066;28;20206;-42
2021/03/05 13:30:32;;;;;;;2.90;1.50;;;;;;;;;;4998126;28;20254;-39
2021/03/05 13:33:18;;;;;;;2.57;1.70;;;;;;;;;;4997061;28;20494;-41
2021/03/05 13:36:07;;;;;;;1.73;1.20;;;;;;;;;;4997737;28;20350;-40
2021/03/05 13:38:54;;;;;;;1.43;1.13;;;;;;;;;;4997835;28;20337;-40
2021/03/05 13:41:41;;;;;;;2.80;1.00;;;;;;;;;;4997460;28;20594;-41
2021/03/05 13:44:27;;;;;;;2.03;1.00;;;;;;;;;;4997801;28;20253;-39
2021/03/05 13:47:31;;;;;;;3.33;1.30;;;;;;;;;;4997614;28;20315;-39
2021/03/05 13:50:18;;;;;;;1.67;1.00;;;;;;;;;;4997718;28;20245;-38
2021/03/05 13:53:04;;;;;;;2.10;1.10;;;;;;;;;;4997431;28;20204;-40
2021/03/05 13:55:51;;;;;;;2.53;1.13;;;;;;;;;;4997772;28;20214;-38
2021/03/05 13:58:38;;;;;;;1.03;0.90;;;;;;;;;;4997517;28;20205;-39
2021/03/05 14:01:24;;;;;;;2.47;1.23;;;;;;;;;;4997420;28;20214;-40
2021/03/05 14:04:10;;;;;;;1.13;1.03;;;;;;;;;;4997490;28;20209;-38
2021/03/05 14:06:56;;;;;;;2.77;0.87;;;;;;;;;;4995927;28;20296;-36
2021/03/05 14:09:46;;;;;;;1.07;1.00;;;;;;;;;;4996654;28;20230;-36
2021/03/05 14:12:34;;;;;;;2.77;1.30;;;;;;;;;;4996615;28;20298;-36
2021/03/05 14:15:20;;;;;;;2.00;1.03;;;;;;;;;;5008565;28;20202;-40
2021/03/05 14:18:07;;;;;;;1.20;1.00;;;;;;;;;;5022824;28;20206;-34
2021/03/05 14:20:56;;;;;;;1.87;1.03;;;;;;;;;;5015679;28;20277;-40
2021/03/05 14:23:49;;;;;;;1.13;0.90;;;;;;;;;;5016798;28;20619;-35
2021/03/05 14:26:35;;;;;;;1.13;1.03;;;;;;;;;;5016908;28;20212;-34
2021/03/05 14:29:23;;;;;;;2.10;0.90;;;;;;;;;;5016187;28;20666;-39
2021/03/05 14:32:11;;;;;;;2.10;1.40;;;;;;;;;;5015938;28;20283;-38
2021/03/05 14:34:57;;;;;;;1.37;0.97;;;;;;;;;;5017279;28;20209;-39
2021/03/05 14:37:47;;;;;;;2.33;1.70;;;;;;;;;;5016480;28;20197;-40
2021/03/05 14:40:32;;;;;;;2.30;0.63;;;;;;;;;;5016889;28;20198;-38
2021/03/05 14:43:23;;;;;;;0.93;0.87;;;;;;;;;;5016427;28;20209;-37
2021/03/05 14:46:10;;;;;;;2.00;1.23;;;;;;;;;;5016250;28;20227;-36
2021/03/05 14:48:56;;;;;;;1.17;1.10;;;;;;;;;;5016144;28;20201;-35
2021/03/05 14:51:45;;;;;;;2.57;0.90;;;;;;;;;;5016161;28;20233;-40
2021/03/05 14:54:39;;;;;;;2.47;1.07;;;;;;;;;;5005499;28;20212;-40
2021/03/05 15:01:34;;;;;;;1.20;1.10;;;;;;;;;;5016829;28;20181;-38
2021/03/05 15:04:20;;;;;;;1.67;1.17;;;;;;;;;;5015194;28;20222;-39
2021/03/05 15:07:06;;;;;;;1.00;1.00;;;;;;;;;;5016154;28;20299;-37
2021/03/05 15:09:52;;;;;;;2.80;1.17;;;;;;;;;;5016881;28;20235;-37
2021/03/05 15:12:41;;;;;;;1.20;1.10;;;;;;;;;;5015354;28;20321;-35
2021/03/05 15:15:27;;;;;;;3.30;1.03;;;;;;;;;;5015506;28;20604;-36
2021/03/05 15:18:14;;;;;;;4.17;1.40;;;;;;;;;;5014836;28;20519;-33
2021/03/05 15:21:02;;;;;;;0.70;0.70;;;;;;;;;;5016038;28;20196;-39
2021/03/05 15:23:48;;;;;;;1.73;1.20;;;;;;;;;;5015709;28;20339;-36
2021/03/05 15:26:34;;;;;;;0.93;0.80;;;;;;;;;;5015558;28;20204;-37
2021/03/05 15:29:21;;;;;;;2.80;0.83;;;;;;;;;;5015449;28;20224;-40
2021/03/05 15:32:07;;;;;;;1.53;0.80;;;;;;;;;;5018815;28;20209;-33
2021/03/05 15:34:55;;;;;;;1.07;1.03;;;;;;;;;;5019858;28;20302;-38
2021/03/05 15:37:42;;;;;;;2.23;1.30;;;;;;;;;;5019627;28;20206;-39
2021/03/05 15:40:30;;;;;;;1.93;1.00;;;;;;;;;;5019841;28;20283;-40
2021/03/05 15:43:17;;;;;;;2.77;1.10;;;;;;;;;;5020093;28;20206;-36
2021/03/05 15:49:52;;;;;;;0.77;0.77;;;;;;;;;;5018999;28;20363;-38
2021/03/05 15:52:41;;;;;;;3.20;1.43;;;;;;;;;;5018877;28;20599;-39
2021/03/05 15:55:28;;;;;;;0.73;0.73;;;;;;;;;;5019355;28;20197;-35
2021/03/05 15:58:13;;;;;;;2.37;0.70;;;;;;;;;;5018802;28;20270;-34
2021/03/05 16:00:59;;;;;;;2.07;1.40;;;;;;;;;;5020135;28;20354;-35
2021/03/05 16:03:46;;;;;;;1.90;1.57;;;;;;;;;;5019285;28;20494;-39
2021/03/05 16:06:32;;;;;;;0.70;0.60;;;;;;;;;;5019006;28;20200;-37
2021/03/05 16:09:22;;;;;;;1.27;1.10;;;;;;;;;;5018482;28;20510;-36
2021/03/05 16:12:09;;;;;;;0.70;0.70;;;;;;;;;;5018283;28;20235;-39
2021/03/05 16:14:58;;;;;;;1.00;1.00;;;;;;;;;;5019602;28;20228;-35
2021/03/05 16:18:07;;;;;;;0.93;0.80;;;;;;;;;;5019120;28;20212;-40
2021/03/05 16:20:53;;;;;;;1.27;0.73;;;;;;;;;;5019275;28;20204;-37
2021/03/05 16:23:41;;;;;;;0.93;0.93;;;;;;;;;;5019616;28;20665;-37
2021/03/05 16:26:28;;;;;;;0.90;0.80;;;;;;;;;;5018995;28;20266;-36
2021/03/05 16:29:16;;;;;;;1.60;1.30;;;;;;;;;;5019506;28;20199;-38
2021/03/05 16:32:09;;;;;;;1.27;1.13;;;;;;;;;;5018878;28;20202;-39
2021/03/05 16:34:59;;;;;;;1.50;0.90;;;;;;;;;;4998826;28;20327;-38
2021/03/05 16:37:44;;;;;;;2.63;1.70;;;;;;;;;;4999092;28;20200;-36
2021/03/05 16:40:32;;;;;;;1.47;1.33;;;;;;;;;;4999299;28;20315;-35
2021/03/05 16:43:22;;;;;;;3.17;1.20;;;;;;;;;;4997352;28;20266;-35
2021/03/05 16:46:08;;;;;;;2.20;1.20;;;;;;;;;;4998891;28;20234;-38
2021/03/05 16:48:54;;;;;;;2.20;1.67;;;;;;;;;;4998456;28;20266;-39
2021/03/05 16:51:40;;;;;;;2.00;1.40;;;;;;;;;;4999040;28;20377;-37
2021/03/05 16:54:28;;;;;;;3.43;1.20;;;;;;;;;;4999020;28;20594;-36